sensor_id;sensor_type;location;lat;lon;timestamp;pressure;altitude;pressure_sealevel;temperature;humidity
5574;BME280;2563;52.242;7.956;2023-02-15T00:01:26;101399.50;;;-0.18;100.00
5574;BME280;2563;52.242;7.956;2023-02-15T00:03:52;101393.50;;;-0.20;100.00
5574;BME280;2563;52.242;7.956;2023-02-15T00:06:17;101393.50;;;-0.20;100.00
5574;BME280;2563;52.242;7.956;2023-02-15T00:08:43;101407.88;;;-0.19;100.00
5574;BME280;2563;52.242;7.956;2023-02-15T00:11:11;101411.31;;;-0.17;100.00
5574;BME280;2563;52.242;7.956;2023-02-15T00:13:36;101430.88;;;-0.13;100.00
5574;BME280;2563;52.242;7.956;2023-02-15T00:16:05;101420.69;;;-0.15;100.00
5574;BME280;2563;52.242;7.956;2023-02-15T00:18:31;101436.84;;;-0.11;100.00
5574;BME280;2563;52.242;7.956;2023-02-15T00:20:57;101436.63;;;-0.17;100.00
5574;BME280;2563;52.242;7.956;2023-02-15T00:23:23;101438.22;;;-0.19;100.00
5574;BME280;2563;52.242;7.956;2023-02-15T00:25:49;101437.38;;;-0.20;100.00
5574;BME280;2563;52.242;7.956;2023-02-15T00:28:15;101450.72;;;-0.24;100.00
5574;BME280;2563;52.242;7.956;2023-02-15T00:30:40;101446.31;;;-0.30;100.00
5574;BME280;2563;52.242;7.956;2023-02-15T00:33:06;101449.44;;;-0.37;100.00
5574;BME280;2563;52.242;7.956;2023-02-15T00:35:31;101447.41;;;-0.47;100.00
5574;BME280;2563;52.242;7.956;2023-02-15T00:37:56;101449.03;;;-0.49;100.00
5574;BME280;2563;52.242;7.956;2023-02-15T00:40:22;101461.94;;;-0.41;100.00
5574;BME280;2563;52.242;7.956;2023-02-15T00:42:47;101465.53;;;-0.35;100.00
5574;BME280;2563;52.242;7.956;2023-02-15T00:45:13;101462.69;;;-0.44;100.00
5574;BME280;2563;52.242;7.956;2023-02-15T00:47:38;101457.44;;;-0.50;100.00
5574;BME280;2563;52.242;7.956;2023-02-15T00:50:04;101461.91;;;-0.66;100.00
5574;BME280;2563;52.242;7.956;2023-02-15T00:52:30;101460.06;;;-0.70;100.00
5574;BME280;2563;52.242;7.956;2023-02-15T00:54:55;101464.25;;;-0.72;100.00
5574;BME280;2563;52.242;7.956;2023-02-15T00:57:21;101460.78;;;-0.74;100.00
5574;BME280;2563;52.242;7.956;2023-02-15T00:59:46;101463.31;;;-0.74;100.00
5574;BME280;2563;52.242;7.956;2023-02-15T01:02:12;101472.69;;;-0.71;100.00
5574;BME280;2563;52.242;7.956;2023-02-15T01:04:37;101477.66;;;-0.73;100.00
5574;BME280;2563;52.242;7.956;2023-02-15T01:07:02;101477.56;;;-0.76;100.00
5574;BME280;2563;52.242;7.956;2023-02-15T01:09:29;101475.78;;;-0.78;100.00
5574;BME280;2563;52.242;7.956;2023-02-15T01:11:54;101476.75;;;-0.75;100.00
5574;BME280;2563;52.242;7.956;2023-02-15T01:14:19;101484.91;;;-0.82;100.00
5574;BME280;2563;52.242;7.956;2023-02-15T01:16:45;101485.56;;;-0.88;100.00
5574;BME280;2563;52.242;7.956;2023-02-15T01:19:10;101488.00;;;-0.89;100.00
5574;BME280;2563;52.242;7.956;2023-02-15T01:21:35;101483.88;;;-0.87;100.00
5574;BME280;2563;52.242;7.956;2023-02-15T01:24:01;101484.44;;;-0.94;100.00
5574;BME280;2563;52.242;7.956;2023-02-15T01:26:26;101496.41;;;-0.90;100.00
5574;BME280;2563;52.242;7.956;2023-02-15T01:28:52;101499.91;;;-0.87;100.00
5574;BME280;2563;52.242;7.956;2023-02-15T01:31:19;101500.06;;;-0.82;100.00
5574;BME280;2563;52.242;7.956;2023-02-15T01:33:46;101497.38;;;-0.87;100.00
5574;BME280;2563;52.242;7.956;2023-02-15T01:36:12;101504.91;;;-0.88;100.00
5574;BME280;2563;52.242;7.956;2023-02-15T01:38:38;101498.00;;;-0.92;100.00
5574;BME280;2563;52.242;7.956;2023-02-15T01:41:05;101496.81;;;-1.02;100.00
5574;BME280;2563;52.242;7.956;2023-02-15T01:43:51;101499.50;;;-0.97;100.00
5574;BME280;2563;52.242;7.956;2023-02-15T01:46:19;101495.97;;;-1.01;100.00
5574;BME280;2563;52.242;7.956;2023-02-15T01:48:52;101507.25;;;-0.93;100.00
5574;BME280;2563;52.242;7.956;2023-02-15T01:51:21;101501.78;;;-1.03;100.00
5574;BME280;2563;52.242;7.956;2023-02-15T01:53:52;101521.22;;;-1.02;100.00
5574;BME280;2563;52.242;7.956;2023-02-15T01:56:22;101518.13;;;-1.16;100.00
5574;BME280;2563;52.242;7.956;2023-02-15T01:58:49;101517.41;;;-1.14;100.00
5574;BME280;2563;52.242;7.956;2023-02-15T02:01:18;101518.03;;;-1.19;100.00
5574;BME280;2563;52.242;7.956;2023-02-15T02:06:48;101508.22;;;-1.12;100.00
5574;BME280;2563;52.242;7.956;2023-02-15T02:09:14;101511.38;;;-1.17;100.00
5574;BME280;2563;52.242;7.956;2023-02-15T02:11:40;101505.31;;;-1.21;100.00
5574;BME280;2563;52.242;7.956;2023-02-15T02:14:06;101498.75;;;-1.17;100.00
5574;BME280;2563;52.242;7.956;2023-02-15T02:30:12;101523.75;;;-1.02;100.00
5574;BME280;2563;52.242;7.956;2023-02-15T02:35:31;101544.63;;;-0.84;100.00
5574;BME280;2563;52.242;7.956;2023-02-15T02:38:11;101553.97;;;-0.83;100.00
5574;BME280;2563;52.242;7.956;2023-02-15T02:41:18;101556.53;;;-0.81;100.00
5574;BME280;2563;52.242;7.956;2023-02-15T02:46:45;101569.13;;;-0.83;100.00
5574;BME280;2563;52.242;7.956;2023-02-15T02:49:05;101567.25;;;-0.89;100.00
5574;BME280;2563;52.242;7.956;2023-02-15T02:51:31;101590.84;;;-0.88;100.00
5574;BME280;2563;52.242;7.956;2023-02-15T02:53:59;101595.91;;;-0.88;100.00
5574;BME280;2563;52.242;7.956;2023-02-15T02:56:47;101591.31;;;-0.97;100.00
5574;BME280;2563;52.242;7.956;2023-02-15T02:59:29;101589.44;;;-1.02;100.00
5574;BME280;2563;52.242;7.956;2023-02-15T03:02:05;101603.66;;;-1.04;100.00
5574;BME280;2563;52.242;7.956;2023-02-15T03:04:37;101618.69;;;-0.87;100.00
5574;BME280;2563;52.242;7.956;2023-02-15T03:07:07;101628.88;;;-0.62;100.00
5574;BME280;2563;52.242;7.956;2023-02-15T03:09:39;101631.38;;;-0.64;100.00
5574;BME280;2563;52.242;7.956;2023-02-15T03:12:11;101630.72;;;-0.81;100.00
5574;BME280;2563;52.242;7.956;2023-02-15T03:14:39;101632.03;;;-0.91;100.00
5574;BME280;2563;52.242;7.956;2023-02-15T03:17:07;101632.94;;;-1.10;100.00
5574;BME280;2563;52.242;7.956;2023-02-15T03:19:35;101622.34;;;-1.22;100.00
5574;BME280;2563;52.242;7.956;2023-02-15T03:22:08;101617.94;;;-1.26;100.00
5574;BME280;2563;52.242;7.956;2023-02-15T03:24:41;101611.66;;;-1.36;100.00
5574;BME280;2563;52.242;7.956;2023-02-15T03:27:12;101612.50;;;-1.35;100.00
5574;BME280;2563;52.242;7.956;2023-02-15T03:29:45;101609.06;;;-1.37;100.00
5574;BME280;2563;52.242;7.956;2023-02-15T03:32:12;101613.91;;;-1.42;100.00
5574;BME280;2563;52.242;7.956;2023-02-15T03:34:39;101623.78;;;-1.48;100.00
5574;BME280;2563;52.242;7.956;2023-02-15T03:39:59;101624.75;;;-1.44;100.00
5574;BME280;2563;52.242;7.956;2023-02-15T03:42:55;101640.16;;;-1.38;100.00
5574;BME280;2563;52.242;7.956;2023-02-15T03:45:28;101645.97;;;-1.41;100.00
5574;BME280;2563;52.242;7.956;2023-02-15T03:47:56;101661.66;;;-1.27;100.00
5574;BME280;2563;52.242;7.956;2023-02-15T03:50:30;101670.72;;;-1.32;100.00
5574;BME280;2563;52.242;7.956;2023-02-15T03:53:18;101672.38;;;-1.33;100.00
5574;BME280;2563;52.242;7.956;2023-02-15T03:55:52;101677.22;;;-1.37;100.00
5574;BME280;2563;52.242;7.956;2023-02-15T03:58:18;101674.19;;;-1.50;100.00
5574;BME280;2563;52.242;7.956;2023-02-15T04:01:11;101675.66;;;-1.55;100.00
5574;BME280;2563;52.242;7.956;2023-02-15T04:04:01;101681.97;;;-1.45;100.00
5574;BME280;2563;52.242;7.956;2023-02-15T04:06:28;101686.00;;;-1.48;100.00
5574;BME280;2563;52.242;7.956;2023-02-15T04:08:53;101689.06;;;-1.56;100.00
5574;BME280;2563;52.242;7.956;2023-02-15T04:11:37;101698.09;;;-1.61;100.00
5574;BME280;2563;52.242;7.956;2023-02-15T04:14:03;101705.53;;;-1.64;100.00
5574;BME280;2563;52.242;7.956;2023-02-15T04:16:48;101712.31;;;-1.63;100.00
5574;BME280;2563;52.242;7.956;2023-02-15T04:19:14;101727.75;;;-1.57;100.00
5574;BME280;2563;52.242;7.956;2023-02-15T04:21:58;101737.44;;;-1.46;100.00
5574;BME280;2563;52.242;7.956;2023-02-15T04:24:42;101733.06;;;-1.51;100.00
5574;BME280;2563;52.242;7.956;2023-02-15T04:27:26;101717.09;;;-1.69;100.00
5574;BME280;2563;52.242;7.956;2023-02-15T04:29:51;101716.97;;;-1.72;100.00
5574;BME280;2563;52.242;7.956;2023-02-15T04:32:17;101719.22;;;-1.78;100.00
5574;BME280;2563;52.242;7.956;2023-02-15T04:34:42;101723.19;;;-1.83;100.00
5574;BME280;2563;52.242;7.956;2023-02-15T04:37:07;101725.19;;;-1.76;100.00
5574;BME280;2563;52.242;7.956;2023-02-15T04:39:32;101727.50;;;-1.81;100.00
5574;BME280;2563;52.242;7.956;2023-02-15T04:41:58;101733.56;;;-1.77;100.00
5574;BME280;2563;52.242;7.956;2023-02-15T04:44:23;101731.81;;;-1.78;100.00
5574;BME280;2563;52.242;7.956;2023-02-15T04:46:48;101726.53;;;-1.84;100.00
5574;BME280;2563;52.242;7.956;2023-02-15T04:49:14;101735.16;;;-1.79;100.00
5574;BME280;2563;52.242;7.956;2023-02-15T04:51:39;101733.84;;;-1.71;100.00
5574;BME280;2563;52.242;7.956;2023-02-15T04:54:07;101735.09;;;-1.81;100.00
5574;BME280;2563;52.242;7.956;2023-02-15T04:56:33;101733.84;;;-1.71;100.00
5574;BME280;2563;52.242;7.956;2023-02-15T04:59:00;101728.09;;;-1.86;100.00
5574;BME280;2563;52.242;7.956;2023-02-15T05:01:25;101731.56;;;-1.84;100.00
5574;BME280;2563;52.242;7.956;2023-02-15T05:03:50;101723.84;;;-1.87;100.00
5574;BME280;2563;52.242;7.956;2023-02-15T05:06:16;101746.63;;;-1.86;100.00
5574;BME280;2563;52.242;7.956;2023-02-15T05:08:41;101737.53;;;-1.82;100.00
5574;BME280;2563;52.242;7.956;2023-02-15T05:11:06;101755.47;;;-1.76;100.00
5574;BME280;2563;52.242;7.956;2023-02-15T05:13:32;101746.38;;;-1.73;100.00
5574;BME280;2563;52.242;7.956;2023-02-15T05:15:57;101753.75;;;-1.77;100.00
5574;BME280;2563;52.242;7.956;2023-02-15T05:18:22;101755.56;;;-1.75;100.00
5574;BME280;2563;52.242;7.956;2023-02-15T05:20:48;101755.06;;;-1.85;100.00
5574;BME280;2563;52.242;7.956;2023-02-15T05:23:13;101751.59;;;-1.87;100.00
5574;BME280;2563;52.242;7.956;2023-02-15T05:25:39;101749.31;;;-2.01;100.00
5574;BME280;2563;52.242;7.956;2023-02-15T05:28:25;101745.22;;;-1.99;100.00
5574;BME280;2563;52.242;7.956;2023-02-15T05:33:24;101748.16;;;-2.07;100.00
5574;BME280;2563;52.242;7.956;2023-02-15T05:35:49;101738.72;;;-2.11;100.00
5574;BME280;2563;52.242;7.956;2023-02-15T05:38:16;101737.34;;;-2.05;100.00
5574;BME280;2563;52.242;7.956;2023-02-15T05:40:41;101742.25;;;-2.08;100.00
5574;BME280;2563;52.242;7.956;2023-02-15T05:43:06;101745.56;;;-2.09;100.00
5574;BME280;2563;52.242;7.956;2023-02-15T05:45:32;101754.72;;;-2.11;100.00
5574;BME280;2563;52.242;7.956;2023-02-15T05:47:57;101756.16;;;-2.16;100.00
5574;BME280;2563;52.242;7.956;2023-02-15T05:50:23;101756.97;;;-2.17;100.00
5574;BME280;2563;52.242;7.956;2023-02-15T05:52:49;101746.06;;;-2.16;100.00
5574;BME280;2563;52.242;7.956;2023-02-15T05:55:14;101755.94;;;-2.21;100.00
5574;BME280;2563;52.242;7.956;2023-02-15T05:57:39;101746.00;;;-2.18;100.00
5574;BME280;2563;52.242;7.956;2023-02-15T06:00:05;101739.00;;;-2.23;100.00
5574;BME280;2563;52.242;7.956;2023-02-15T06:02:34;101742.69;;;-2.17;100.00
5574;BME280;2563;52.242;7.956;2023-02-15T06:05:00;101747.44;;;-2.23;100.00
5574;BME280;2563;52.242;7.956;2023-02-15T06:07:25;101746.88;;;-2.17;100.00
5574;BME280;2563;52.242;7.956;2023-02-15T06:09:51;101750.56;;;-2.10;100.00
5574;BME280;2563;52.242;7.956;2023-02-15T06:12:16;101749.75;;;-2.09;100.00
5574;BME280;2563;52.242;7.956;2023-02-15T06:14:42;101748.44;;;-2.19;100.00
5574;BME280;2563;52.242;7.956;2023-02-15T06:17:07;101756.09;;;-2.18;100.00
5574;BME280;2563;52.242;7.956;2023-02-15T06:19:32;101752.84;;;-2.15;100.00
5574;BME280;2563;52.242;7.956;2023-02-15T06:21:58;101759.41;;;-2.19;100.00
5574;BME280;2563;52.242;7.956;2023-02-15T06:24:23;101760.25;;;-2.18;100.00
5574;BME280;2563;52.242;7.956;2023-02-15T06:26:48;101766.09;;;-2.19;100.00
5574;BME280;2563;52.242;7.956;2023-02-15T06:29:14;101763.44;;;-2.22;100.00
5574;BME280;2563;52.242;7.956;2023-02-15T06:31:39;101771.78;;;-2.23;100.00
5574;BME280;2563;52.242;7.956;2023-02-15T06:34:05;101769.03;;;-2.28;100.00
5574;BME280;2563;52.242;7.956;2023-02-15T06:36:31;101774.38;;;-2.22;100.00
5574;BME280;2563;52.242;7.956;2023-02-15T06:38:56;101770.22;;;-2.21;100.00
5574;BME280;2563;52.242;7.956;2023-02-15T06:41:22;101770.72;;;-2.28;100.00
5574;BME280;2563;52.242;7.956;2023-02-15T06:43:48;101776.09;;;-2.21;100.00
5574;BME280;2563;52.242;7.956;2023-02-15T06:46:14;101777.41;;;-2.11;100.00
5574;BME280;2563;52.242;7.956;2023-02-15T06:48:39;101782.44;;;-2.11;100.00
5574;BME280;2563;52.242;7.956;2023-02-15T06:51:05;101787.22;;;-2.17;100.00
5574;BME280;2563;52.242;7.956;2023-02-15T06:53:30;101785.78;;;-2.12;100.00
5574;BME280;2563;52.242;7.956;2023-02-15T06:56:03;101795.72;;;-2.15;100.00
5574;BME280;2563;52.242;7.956;2023-02-15T06:58:32;101793.44;;;-2.10;100.00
5574;BME280;2563;52.242;7.956;2023-02-15T07:00:57;101796.09;;;-2.07;100.00
5574;BME280;2563;52.242;7.956;2023-02-15T07:03:22;101796.31;;;-2.03;100.00
5574;BME280;2563;52.242;7.956;2023-02-15T07:05:48;101795.88;;;-2.12;100.00
5574;BME280;2563;52.242;7.956;2023-02-15T07:08:14;101795.06;;;-2.11;100.00
5574;BME280;2563;52.242;7.956;2023-02-15T07:10:43;101798.09;;;-2.00;100.00
5574;BME280;2563;52.242;7.956;2023-02-15T07:13:08;101811.59;;;-2.00;100.00
5574;BME280;2563;52.242;7.956;2023-02-15T07:15:34;101819.00;;;-1.85;100.00
5574;BME280;2563;52.242;7.956;2023-02-15T07:17:59;101817.41;;;-1.83;100.00
5574;BME280;2563;52.242;7.956;2023-02-15T07:20:24;101815.47;;;-1.71;100.00
5574;BME280;2563;52.242;7.956;2023-02-15T07:22:50;101818.31;;;-1.63;100.00
5574;BME280;2563;52.242;7.956;2023-02-15T07:25:16;101823.81;;;-1.54;100.00
5574;BME280;2563;52.242;7.956;2023-02-15T07:27:42;101819.19;;;-1.44;100.00
5574;BME280;2563;52.242;7.956;2023-02-15T07:30:11;101827.03;;;-1.38;100.00
5574;BME280;2563;52.242;7.956;2023-02-15T07:32:37;101832.13;;;-1.37;100.00
5574;BME280;2563;52.242;7.956;2023-02-15T07:35:22;101836.88;;;-1.25;100.00
5574;BME280;2563;52.242;7.956;2023-02-15T07:37:47;101838.16;;;-1.15;100.00
5574;BME280;2563;52.242;7.956;2023-02-15T07:40:13;101845.22;;;-1.08;100.00
5574;BME280;2563;52.242;7.956;2023-02-15T07:42:38;101838.03;;;-0.99;100.00
5574;BME280;2563;52.242;7.956;2023-02-15T07:45:03;101848.47;;;-0.91;100.00
5574;BME280;2563;52.242;7.956;2023-02-15T07:47:29;101856.41;;;-0.83;100.00
5574;BME280;2563;52.242;7.956;2023-02-15T07:49:54;101855.69;;;-0.81;100.00
5574;BME280;2563;52.242;7.956;2023-02-15T07:52:20;101849.88;;;-0.78;100.00
5574;BME280;2563;52.242;7.956;2023-02-15T07:54:45;101844.72;;;-0.60;100.00
5574;BME280;2563;52.242;7.956;2023-02-15T07:57:10;101857.88;;;-0.48;100.00
5574;BME280;2563;52.242;7.956;2023-02-15T07:59:36;101876.13;;;-0.36;100.00
5574;BME280;2563;52.242;7.956;2023-02-15T08:02:01;101875.16;;;-0.18;100.00
5574;BME280;2563;52.242;7.956;2023-02-15T08:04:26;101889.25;;;-0.04;100.00
5574;BME280;2563;52.242;7.956;2023-02-15T08:06:53;101893.78;;;0.05;100.00
5574;BME280;2563;52.242;7.956;2023-02-15T08:09:19;101899.50;;;0.20;100.00
5574;BME280;2563;52.242;7.956;2023-02-15T08:11:46;101914.53;;;0.38;100.00
5574;BME280;2563;52.242;7.956;2023-02-15T08:14:21;101914.78;;;0.44;100.00
5574;BME280;2563;52.242;7.956;2023-02-15T08:16:54;101918.06;;;0.62;100.00
5574;BME280;2563;52.242;7.956;2023-02-15T08:19:23;101918.56;;;0.76;100.00
5574;BME280;2563;52.242;7.956;2023-02-15T08:22:12;101914.69;;;0.86;100.00
5574;BME280;2563;52.242;7.956;2023-02-15T08:24:36;101896.50;;;0.96;100.00
5574;BME280;2563;52.242;7.956;2023-02-15T08:27:03;101899.13;;;0.99;100.00
5574;BME280;2563;52.242;7.956;2023-02-15T08:29:30;101895.19;;;1.08;100.00
5574;BME280;2563;52.242;7.956;2023-02-15T08:32:01;101880.91;;;1.10;100.00
5574;BME280;2563;52.242;7.956;2023-02-15T08:34:29;101878.13;;;1.26;100.00
5574;BME280;2563;52.242;7.956;2023-02-15T08:36:55;101873.09;;;1.52;100.00
5574;BME280;2563;52.242;7.956;2023-02-15T08:39:21;101881.69;;;1.81;100.00
5574;BME280;2563;52.242;7.956;2023-02-15T08:41:47;101863.13;;;2.09;100.00
5574;BME280;2563;52.242;7.956;2023-02-15T08:44:14;101861.06;;;2.24;100.00
5574;BME280;2563;52.242;7.956;2023-02-15T08:46:42;101847.19;;;2.42;100.00
5574;BME280;2563;52.242;7.956;2023-02-15T08:49:09;101832.34;;;2.54;100.00
5574;BME280;2563;52.242;7.956;2023-02-15T08:51:37;101819.34;;;2.73;100.00
5574;BME280;2563;52.242;7.956;2023-02-15T08:54:08;101814.41;;;2.80;100.00
5574;BME280;2563;52.242;7.956;2023-02-15T08:56:37;101805.81;;;3.06;100.00
5574;BME280;2563;52.242;7.956;2023-02-15T08:59:04;101794.41;;;3.24;100.00
5574;BME280;2563;52.242;7.956;2023-02-15T09:01:31;101790.34;;;3.65;100.00
5574;BME280;2563;52.242;7.956;2023-02-15T09:03:59;101778.38;;;3.97;100.00
5574;BME280;2563;52.242;7.956;2023-02-15T09:06:26;101773.34;;;4.00;100.00
5574;BME280;2563;52.242;7.956;2023-02-15T09:08:52;101755.16;;;4.23;100.00
5574;BME280;2563;52.242;7.956;2023-02-15T09:13:51;101728.13;;;4.74;100.00
5574;BME280;2563;52.242;7.956;2023-02-15T09:16:17;101714.13;;;4.99;100.00
5574;BME280;2563;52.242;7.956;2023-02-15T09:18:43;101707.03;;;4.82;100.00
5574;BME280;2563;52.242;7.956;2023-02-15T09:21:11;101684.00;;;4.78;100.00
5574;BME280;2563;52.242;7.956;2023-02-15T09:23:39;101663.78;;;4.88;100.00
5574;BME280;2563;52.242;7.956;2023-02-15T09:26:07;101645.09;;;5.44;100.00
5574;BME280;2563;52.242;7.956;2023-02-15T09:28:33;101624.19;;;6.43;100.00
5574;BME280;2563;52.242;7.956;2023-02-15T09:33:35;101600.47;;;6.56;100.00
5574;BME280;2563;52.242;7.956;2023-02-15T09:36:03;101564.81;;;6.79;100.00
5574;BME280;2563;52.242;7.956;2023-02-15T09:38:29;101526.63;;;7.04;100.00
5574;BME280;2563;52.242;7.956;2023-02-15T09:41:08;101495.22;;;7.46;100.00
5574;BME280;2563;52.242;7.956;2023-02-15T09:49:10;101365.50;;;7.88;100.00
5574;BME280;2563;52.242;7.956;2023-02-15T09:51:44;101322.78;;;7.84;100.00
5574;BME280;2563;52.242;7.956;2023-02-15T09:54:30;101297.00;;;8.64;100.00
5574;BME280;2563;52.242;7.956;2023-02-15T09:57:03;101257.47;;;8.96;100.00
5574;BME280;2563;52.242;7.956;2023-02-15T10:05:20;101162.59;;;9.75;100.00
5574;BME280;2563;52.242;7.956;2023-02-15T10:10:30;101082.69;;;9.92;100.00
5574;BME280;2563;52.242;7.956;2023-02-15T10:26:21;100756.47;;;10.62;100.00
5574;BME280;2563;52.242;7.956;2023-02-15T10:34:06;100754.44;;;10.36;100.00
5574;BME280;2563;52.242;7.956;2023-02-15T10:42:42;100838.44;;;10.82;100.00
5574;BME280;2563;52.242;7.956;2023-02-15T10:45:24;100866.28;;;10.63;100.00
5574;BME280;2563;52.242;7.956;2023-02-15T10:50:26;100907.06;;;10.84;100.00
5574;BME280;2563;52.242;7.956;2023-02-15T10:52:59;100918.00;;;11.38;100.00
5574;BME280;2563;52.242;7.956;2023-02-15T11:01:29;100988.34;;;11.83;100.00
5574;BME280;2563;52.242;7.956;2023-02-15T11:06:49;101034.59;;;12.30;100.00
5574;BME280;2563;52.242;7.956;2023-02-15T11:09:18;101042.66;;;12.53;100.00
5574;BME280;2563;52.242;7.956;2023-02-15T11:11:49;101060.00;;;12.48;100.00
5574;BME280;2563;52.242;7.956;2023-02-15T11:17:07;101068.31;;;12.95;100.00
5574;BME280;2563;52.242;7.956;2023-02-15T11:19:41;101070.81;;;12.98;100.00
5574;BME280;2563;52.242;7.956;2023-02-15T11:22:10;101097.19;;;12.77;100.00
5574;BME280;2563;52.242;7.956;2023-02-15T11:24:42;101092.53;;;12.91;100.00
5574;BME280;2563;52.242;7.956;2023-02-15T11:27:19;101100.03;;;13.01;100.00
5574;BME280;2563;52.242;7.956;2023-02-15T11:32:26;101074.13;;;13.68;100.00
5574;BME280;2563;52.242;7.956;2023-02-15T11:37:36;101069.72;;;14.01;100.00
5574;BME280;2563;52.242;7.956;2023-02-15T11:40:15;101077.56;;;13.68;100.00
5574;BME280;2563;52.242;7.956;2023-02-15T11:42:43;101085.66;;;13.23;100.00
5574;BME280;2563;52.242;7.956;2023-02-15T11:45:22;101102.56;;;12.68;100.00
5574;BME280;2563;52.242;7.956;2023-02-15T11:47:48;101087.47;;;12.87;100.00
5574;BME280;2563;52.242;7.956;2023-02-15T11:50:15;101065.94;;;13.19;100.00
5574;BME280;2563;52.242;7.956;2023-02-15T11:52:42;101044.75;;;13.70;100.00
5574;BME280;2563;52.242;7.956;2023-02-15T11:55:19;101045.16;;;13.55;100.00
5574;BME280;2563;52.242;7.956;2023-02-15T11:57:50;101035.50;;;13.61;100.00
5574;BME280;2563;52.242;7.956;2023-02-15T12:00:27;101016.88;;;13.78;100.00
5574;BME280;2563;52.242;7.956;2023-02-15T12:02:57;101021.75;;;13.59;100.00
5574;BME280;2563;52.242;7.956;2023-02-15T12:05:24;101037.50;;;13.19;100.00
5574;BME280;2563;52.242;7.956;2023-02-15T12:07:55;101017.97;;;13.42;100.00
5574;BME280;2563;52.242;7.956;2023-02-15T12:10:25;101001.56;;;13.72;100.00
5574;BME280;2563;52.242;7.956;2023-02-15T12:13:14;101003.88;;;13.52;100.00
5574;BME280;2563;52.242;7.956;2023-02-15T12:15:54;100999.81;;;13.43;100.00
5574;BME280;2563;52.242;7.956;2023-02-15T12:18:40;101015.88;;;13.23;100.00
5574;BME280;2563;52.242;7.956;2023-02-15T12:21:12;100997.38;;;13.68;100.00
5574;BME280;2563;52.242;7.956;2023-02-15T12:23:51;101015.59;;;13.64;100.00
5574;BME280;2563;52.242;7.956;2023-02-15T12:26:32;101017.59;;;13.83;100.00
5574;BME280;2563;52.242;7.956;2023-02-15T12:29:00;101020.97;;;13.86;100.00
5574;BME280;2563;52.242;7.956;2023-02-15T12:31:32;100998.06;;;14.30;100.00
5574;BME280;2563;52.242;7.956;2023-02-15T12:34:01;100991.97;;;14.57;100.00
5574;BME280;2563;52.242;7.956;2023-02-15T12:36:42;100994.44;;;14.34;100.00
5574;BME280;2563;52.242;7.956;2023-02-15T12:42:03;101003.53;;;14.20;100.00
5574;BME280;2563;52.242;7.956;2023-02-15T12:49:41;101037.31;;;13.88;100.00
5574;BME280;2563;52.242;7.956;2023-02-15T12:54:47;101052.09;;;14.12;100.00
5574;BME280;2563;52.242;7.956;2023-02-15T12:57:35;101026.94;;;14.44;100.00
5574;BME280;2563;52.242;7.956;2023-02-15T13:00:45;101039.09;;;14.68;100.00
5574;BME280;2563;52.242;7.956;2023-02-15T13:02:53;101063.72;;;15.07;100.00
5574;BME280;2563;52.242;7.956;2023-02-15T13:05:47;101107.59;;;14.86;100.00
5574;BME280;2563;52.242;7.956;2023-02-15T13:08:16;101128.16;;;14.93;100.00
5574;BME280;2563;52.242;7.956;2023-02-15T13:13:30;101212.34;;;14.81;100.00
5574;BME280;2563;52.242;7.956;2023-02-15T13:16:02;101231.28;;;14.83;100.00
5574;BME280;2563;52.242;7.956;2023-02-15T13:18:35;101277.84;;;14.86;100.00
5574;BME280;2563;52.242;7.956;2023-02-15T13:21:21;101283.78;;;14.89;100.00
5574;BME280;2563;52.242;7.956;2023-02-15T13:23:53;101275.88;;;14.94;100.00
5574;BME280;2563;52.242;7.956;2023-02-15T13:26:25;101297.91;;;14.48;100.00
5574;BME280;2563;52.242;7.956;2023-02-15T13:28:54;101300.56;;;14.46;100.00
5574;BME280;2563;52.242;7.956;2023-02-15T13:31:24;101327.72;;;14.32;100.00
5574;BME280;2563;52.242;7.956;2023-02-15T13:34:00;101311.34;;;14.62;100.00
5574;BME280;2563;52.242;7.956;2023-02-15T13:36:47;101343.44;;;14.58;100.00
5574;BME280;2563;52.242;7.956;2023-02-15T13:39:22;101346.84;;;14.28;100.00
5574;BME280;2563;52.242;7.956;2023-02-15T13:47:10;101387.22;;;14.67;100.00
5574;BME280;2563;52.242;7.956;2023-02-15T13:49:49;101347.63;;;14.62;100.00
5574;BME280;2563;52.242;7.956;2023-02-15T13:52:20;101340.25;;;14.49;100.00
5574;BME280;2563;52.242;7.956;2023-02-15T14:00:19;101343.19;;;14.97;100.00
5574;BME280;2563;52.242;7.956;2023-02-15T14:05:57;101356.41;;;14.58;100.00
5574;BME280;2563;52.242;7.956;2023-02-15T14:16:36;101474.88;;;13.80;100.00
5574;BME280;2563;52.242;7.956;2023-02-15T14:19:30;101494.66;;;13.42;100.00
5574;BME280;2563;52.242;7.956;2023-02-15T14:22:26;101504.22;;;13.38;100.00
5574;BME280;2563;52.242;7.956;2023-02-15T14:32:48;101549.84;;;12.94;100.00
5574;BME280;2563;52.242;7.956;2023-02-15T14:35:15;101550.75;;;12.90;100.00
5574;BME280;2563;52.242;7.956;2023-02-15T14:41:02;101539.78;;;12.79;100.00
5574;BME280;2563;52.242;7.956;2023-02-15T14:46:55;101553.88;;;12.60;100.00
5574;BME280;2563;52.242;7.956;2023-02-15T14:49:32;101548.03;;;12.47;100.00
5574;BME280;2563;52.242;7.956;2023-02-15T14:59:35;101538.22;;;12.15;100.00
5574;BME280;2563;52.242;7.956;2023-02-15T15:07:03;101545.31;;;12.00;100.00
5574;BME280;2563;52.242;7.956;2023-02-15T15:09:34;101542.81;;;11.94;100.00
5574;BME280;2563;52.242;7.956;2023-02-15T15:12:36;101539.47;;;11.86;100.00
5574;BME280;2563;52.242;7.956;2023-02-15T15:15:03;101549.91;;;11.75;100.00
5574;BME280;2563;52.242;7.956;2023-02-15T15:22:33;101544.13;;;11.59;100.00
5574;BME280;2563;52.242;7.956;2023-02-15T15:28:02;101540.81;;;11.46;100.00
5574;BME280;2563;52.242;7.956;2023-02-15T15:38:51;101543.81;;;11.08;100.00
5574;BME280;2563;52.242;7.956;2023-02-15T15:41:40;101543.91;;;11.02;100.00
5574;BME280;2563;52.242;7.956;2023-02-15T15:49:32;101542.44;;;10.73;100.00
5574;BME280;2563;52.242;7.956;2023-02-15T15:52:02;101528.72;;;10.71;100.00
5574;BME280;2563;52.242;7.956;2023-02-15T15:54:28;101533.09;;;10.60;100.00
5574;BME280;2563;52.242;7.956;2023-02-15T15:56:58;101527.19;;;10.52;100.00
5574;BME280;2563;52.242;7.956;2023-02-15T15:59:30;101528.06;;;10.49;100.00
5574;BME280;2563;52.242;7.956;2023-02-15T16:01:56;101523.81;;;10.40;100.00
5574;BME280;2563;52.242;7.956;2023-02-15T16:04:31;101528.19;;;10.31;100.00
5574;BME280;2563;52.242;7.956;2023-02-15T16:07:03;101527.34;;;10.24;100.00
5574;BME280;2563;52.242;7.956;2023-02-15T16:09:38;101520.63;;;10.05;100.00
5574;BME280;2563;52.242;7.956;2023-02-15T16:12:04;101520.69;;;9.91;100.00